Terminal Aerodrome Forecast
Issued by NWS

Home | Current Version | Previous Version | Text Only | Print | Product List | Glossary On
Versions: 1 2 3 4 5 6 7 8 9 10 11 12 13 14 15 16 17 18 19 20 21 22 23 24
585
FTUS43 KGRR 250314 AAB
TAFAZO
TAF AMD
KAZO 250314Z 2503/2524 11012G18KT P6SM VCSH OVC012
     FM250400 12010G16KT 6SM -SHRA BR OVC007 WS020/15045KT
     FM251100 24016G24KT P6SM OVC010
     FM251600 25018G26KT P6SM SCT025=

USA.gov is the U.S. government's official web portal to all federal, state and local government web resources and services.